Time;durP1;ratioP1;P1;durP2;ratioP2;P2;SDS_P1;SDS_P2;PMS_P1;PMS_P2;Temp;Humidity;BMP_temperature;BMP_pressure;BME280_temperature;BME280_humidity;BME280_pressure;Samples;Min_cycle;Max_cycle;Signal;HPM_P1;HPM_P2
2022/03/17 00:01:36;;;;;;;29.08;20.20;;;9.70;99.90;;;;;;4990968;28;20056;-85
2022/03/17 00:04:01;;;;;;;30.80;20.20;;;9.70;99.90;;;;;;4990246;28;20418;-85
2022/03/17 00:06:28;;;;;;;29.52;19.63;;;9.70;99.90;;;;;;4989533;28;20081;-85
2022/03/17 00:08:54;;;;;;;25.90;19.42;;;10.40;99.90;;;;;;4990744;28;20449;-85
2022/03/17 00:11:20;;;;;;;28.55;19.52;;;10.20;99.90;;;;;;4988399;28;20041;-85
2022/03/17 00:13:55;;;;;;;29.48;20.20;;;10.40;99.90;;;;;;4991286;28;20045;-85
2022/03/17 00:16:21;;;;;;;30.10;20.33;;;9.60;99.90;;;;;;4993050;28;20100;-85
2022/03/17 00:18:47;;;;;;;29.52;19.92;;;10.60;99.90;;;;;;4993753;28;20057;-85
2022/03/17 00:21:12;;;;;;;27.10;19.13;;;10.30;99.90;;;;;;4993164;28;20057;-85
2022/03/17 00:23:38;;;;;;;26.73;19.73;;;10.20;99.90;;;;;;4977805;28;20529;-85
2022/03/17 00:26:04;;;;;;;29.33;19.40;;;10.50;99.90;;;;;;4991975;28;20046;-84
2022/03/17 00:28:29;;;;;;;29.23;20.90;;;9.60;99.90;;;;;;4993212;28;20507;-85
2022/03/17 00:30:56;;;;;;;30.25;20.50;;;10.30;99.90;;;;;;4993757;28;20042;-86
2022/03/17 00:33:22;;;;;;;32.00;20.20;;;9.90;99.90;;;;;;4991996;28;20398;-85
2022/03/17 00:35:47;;;;;;;29.85;20.88;;;10.60;99.90;;;;;;4993918;28;20427;-85
2022/03/17 00:38:18;;;;;;;31.27;19.85;;;9.60;99.90;;;;;;4992885;28;20132;-84
2022/03/17 00:40:52;;;;;;;31.25;21.17;;;9.60;99.90;;;;;;4975779;28;20462;-85
2022/03/17 00:43:24;;;;;;;34.95;21.02;;;9.60;99.90;;;;;;4992571;28;20054;-85
2022/03/17 00:45:50;;;;;;;30.17;21.10;;;9.70;99.90;;;;;;4993679;28;20085;-84
2022/03/17 00:48:16;;;;;;;29.58;20.98;;;10.00;99.90;;;;;;4992661;28;20050;-85
2022/03/17 00:50:42;;;;;;;28.08;19.45;;;9.60;99.90;;;;;;4993934;28;20185;-84
2022/03/17 00:53:23;;;;;;;29.15;21.20;;;9.60;99.90;;;;;;4992255;28;20052;-85
2022/03/17 00:55:48;;;;;;;36.60;21.02;;;9.60;99.90;;;;;;4992596;28;20057;-85
2022/03/17 00:58:17;;;;;;;28.85;19.75;;;9.90;99.90;;;;;;4992747;28;20049;-85
2022/03/17 01:00:43;;;;;;;29.30;20.52;;;10.60;99.90;;;;;;4992541;28;20056;-83
2022/03/17 01:03:08;;;;;;;32.13;20.20;;;10.50;99.90;;;;;;4992432;28;20072;-83
2022/03/17 01:05:34;;;;;;;28.17;19.48;;;10.40;99.90;;;;;;4993012;28;20050;-84
2022/03/17 01:08:00;;;;;;;28.52;20.83;;;10.30;99.90;;;;;;4991347;28;20132;-84
2022/03/17 01:10:26;;;;;;;31.63;20.65;;;9.60;99.90;;;;;;4993270;28;20042;-84
2022/03/17 01:12:51;;;;;;;36.42;21.50;;;9.60;99.90;;;;;;4991943;28;20439;-85
2022/03/17 01:15:19;;;;;;;32.30;21.05;;;9.60;99.90;;;;;;4991528;28;20062;-85
2022/03/17 01:17:45;;;;;;;29.08;21.33;;;9.60;99.90;;;;;;4976799;28;20064;-86
2022/03/17 01:20:11;;;;;;;28.77;20.80;;;9.80;99.90;;;;;;5008356;28;20474;-85
2022/03/17 01:22:37;;;;;;;31.17;21.80;;;9.50;99.90;;;;;;4992215;28;20046;-84
2022/03/17 01:25:05;;;;;;;31.25;20.88;;;9.50;99.90;;;;;;4975207;28;20072;-84
2022/03/17 01:27:31;;;;;;;33.83;20.40;;;9.50;99.90;;;;;;4974918;28;20049;-84
2022/03/17 01:29:56;;;;;;;31.13;20.95;;;9.80;99.90;;;;;;4975635;28;20060;-84
2022/03/17 01:32:23;;;;;;;30.52;21.48;;;10.20;99.90;;;;;;4991900;28;20125;-84
2022/03/17 01:34:49;;;;;;;32.13;21.70;;;9.50;99.90;;;;;;4976115;28;20049;-84
2022/03/17 01:37:15;;;;;;;29.23;20.88;;;10.00;99.90;;;;;;4991161;28;20131;-84
2022/03/17 01:39:41;;;;;;;32.33;21.55;;;9.50;99.90;;;;;;4976709;28;20191;-84
2022/03/17 01:42:10;;;;;;;30.42;21.58;;;9.90;99.90;;;;;;4991134;28;20490;-84
2022/03/17 01:44:37;;;;;;;32.65;21.58;;;9.50;99.90;;;;;;4975443;28;20042;-84
2022/03/17 01:49:48;;;;;;;31.75;22.35;;;9.40;99.90;;;;;;4991512;28;20049;-85
2022/03/17 01:52:13;;;;;;;33.30;21.80;;;9.50;99.90;;;;;;4992003;28;20394;-85
2022/03/17 01:54:41;;;;;;;33.35;21.25;;;10.00;99.90;;;;;;4976247;28;20516;-86
2022/03/17 01:57:08;;;;;;;31.30;22.00;;;9.80;99.90;;;;;;4974079;28;20034;-85
2022/03/17 01:59:36;;;;;;;31.48;20.92;;;9.40;99.90;;;;;;4992439;28;20046;-86
2022/03/17 02:02:04;;;;;;;28.48;20.23;;;9.30;99.90;;;;;;4975281;28;20046;-85
2022/03/17 02:04:30;;;;;;;28.77;21.65;;;9.30;99.90;;;;;;4975286;28;20046;-86
2022/03/17 02:06:56;;;;;;;35.03;22.08;;;9.40;99.90;;;;;;4991747;28;20042;-86
2022/03/17 02:09:26;;;;;;;32.33;22.35;;;9.30;99.90;;;;;;4991729;28;20445;-84
2022/03/17 02:14:53;;;;;;;32.72;22.00;;;9.70;99.90;;;;;;4991301;28;20576;-84
2022/03/17 02:17:20;;;;;;;31.05;21.20;;;9.60;99.90;;;;;;4974575;28;20058;-84
2022/03/17 02:19:46;;;;;;;31.45;22.23;;;9.30;99.90;;;;;;4991313;28;20429;-85
2022/03/17 02:22:14;;;;;;;28.23;20.83;;;9.30;99.90;;;;;;4974664;28;20038;-84
2022/03/17 02:27:29;;;;;;;30.88;22.17;;;9.30;99.90;;;;;;4990680;28;20100;-85
2022/03/17 02:29:57;;;;;;;30.27;21.85;;;9.40;99.90;;;;;;4974711;28;20046;-85
2022/03/17 02:32:23;;;;;;;36.15;22.88;;;9.30;99.90;;;;;;4990254;28;20413;-85
2022/03/17 02:34:49;;;;;;;30.50;20.90;;;9.40;99.90;;;;;;4991116;28;20050;-85
2022/03/17 02:37:15;;;;;;;31.80;22.27;;;9.50;99.90;;;;;;4989939;28;20054;-85
2022/03/17 02:39:42;;;;;;;30.50;21.73;;;9.40;99.90;;;;;;4991145;28;20485;-85
2022/03/17 02:42:10;;;;;;;31.35;20.73;;;9.40;99.90;;;;;;4989602;28;20066;-84
2022/03/17 02:44:37;;;;;;;31.50;22.27;;;10.20;99.90;;;;;;4991594;28;20046;-84
2022/03/17 02:47:04;;;;;;;32.20;22.15;;;9.70;99.90;;;;;;4990263;28;20037;-85
2022/03/17 02:49:30;;;;;;;33.17;23.15;;;9.40;99.90;;;;;;4991436;28;20050;-85
2022/03/17 02:51:56;;;;;;;32.10;22.27;;;10.10;99.90;;;;;;4990681;28;20053;-84
2022/03/17 02:54:22;;;;;;;32.83;21.83;;;10.30;99.90;;;;;;4989850;28;20041;-84
2022/03/17 02:56:47;;;;;;;29.73;21.45;;;10.40;99.90;;;;;;4990885;28;20499;-84
2022/03/17 02:59:25;;;;;;;29.73;21.02;;;9.60;99.90;;;;;;4974948;28;20115;-84
2022/03/17 03:01:51;;;;;;;31.65;21.48;;;10.00;99.90;;;;;;4989756;28;20046;-84
2022/03/17 03:04:16;;;;;;;33.78;22.48;;;9.50;99.90;;;;;;4990688;28;20148;-84
2022/03/17 03:06:45;;;;;;;30.50;21.42;;;9.70;99.90;;;;;;5007764;28;20535;-84
2022/03/17 03:09:17;;;;;;;29.63;21.63;;;10.50;99.90;;;;;;4973996;28;20103;-85
2022/03/17 03:11:43;;;;;;;32.15;21.58;;;9.70;99.90;;;;;;4990218;28;20049;-84
2022/03/17 03:14:09;;;;;;;30.55;21.30;;;10.00;99.90;;;;;;4989206;28;20188;-84
2022/03/17 03:16:35;;;;;;;36.28;22.30;;;9.60;99.90;;;;;;4990925;28;20053;-84
2022/03/17 03:19:01;;;;;;;30.02;21.60;;;9.90;99.90;;;;;;4990530;28;20050;-84
2022/03/17 03:21:27;;;;;;;30.73;22.42;;;9.60;99.90;;;;;;4973849;28;20420;-84
2022/03/17 03:23:53;;;;;;;32.58;23.00;;;9.50;99.90;;;;;;4990234;28;20144;-84
2022/03/17 03:26:18;;;;;;;31.95;22.13;;;9.60;99.90;;;;;;4990087;28;20053;-84
2022/03/17 03:28:44;;;;;;;29.05;22.25;;;9.60;99.90;;;;;;4989944;28;20521;-84
2022/03/17 03:31:18;;;;;;;30.83;22.13;;;9.50;99.90;;;;;;4989525;28;20046;-83
2022/03/17 03:33:44;;;;;;;32.05;22.52;;;9.80;99.90;;;;;;4974364;28;20042;-84
2022/03/17 03:38:54;;;;;;;31.10;21.80;;;10.00;99.90;;;;;;4990435;28;20038;-84
2022/03/17 03:41:19;;;;;;;30.98;22.52;;;10.50;99.90;;;;;;4989933;28;20042;-84
2022/03/17 03:43:54;;;;;;;30.83;23.13;;;10.10;99.90;;;;;;4989841;28;20057;-85
2022/03/17 03:46:21;;;;;;;32.90;21.73;;;9.80;99.90;;;;;;4990068;28;20049;-84
2022/03/17 03:48:47;;;;;;;32.08;23.00;;;10.50;99.90;;;;;;4991426;28;20401;-83
2022/03/17 03:51:13;;;;;;;34.42;22.75;;;9.50;99.90;;;;;;4992676;28;20046;-84
2022/03/17 03:56:25;;;;;;;32.95;22.45;;;9.60;99.90;;;;;;5008746;28;20050;-84
2022/03/17 03:58:50;;;;;;;33.83;23.65;;;9.60;99.90;;;;;;4978065;28;20095;-84
2022/03/17 04:01:18;;;;;;;33.67;23.23;;;9.60;99.90;;;;;;4993095;28;20050;-84
2022/03/17 04:03:44;;;;;;;31.98;22.48;;;9.80;99.90;;;;;;4993502;28;20045;-85
2022/03/17 04:06:10;;;;;;;35.80;23.83;;;10.30;99.90;;;;;;4993940;28;20042;-85
2022/03/17 04:08:36;;;;;;;33.58;23.85;;;10.20;99.90;;;;;;4994052;28;20050;-85
2022/03/17 04:11:05;;;;;;;33.97;23.77;;;9.70;99.90;;;;;;4992828;28;20052;-84
2022/03/17 04:13:30;;;;;;;34.95;24.48;;;10.00;99.90;;;;;;4993045;28;20042;-85
2022/03/17 04:15:56;;;;;;;34.45;25.20;;;9.90;99.90;;;;;;4993972;28;20054;-84
2022/03/17 04:18:22;;;;;;;32.40;26.50;;;9.80;99.90;;;;;;4992794;28;20058;-84
2022/03/17 04:20:48;;;;;;;36.22;26.27;;;9.70;99.90;;;;;;4994888;28;20046;-85
2022/03/17 04:23:14;;;;;;;37.85;27.65;;;9.70;99.90;;;;;;4993581;28;20513;-85
2022/03/17 04:25:39;;;;;;;38.38;25.67;;;9.70;99.90;;;;;;4992598;28;20042;-84
2022/03/17 04:28:05;;;;;;;37.90;27.80;;;9.70;99.90;;;;;;4993650;28;20041;-84
2022/03/17 04:30:33;;;;;;;37.88;26.98;;;9.70;99.90;;;;;;4993575;28;20505;-84
2022/03/17 04:32:58;;;;;;;37.42;28.25;;;10.20;99.90;;;;;;4993531;28;20056;-84
2022/03/17 04:35:25;;;;;;;38.35;29.15;;;9.70;99.90;;;;;;4993571;28;20557;-85
2022/03/17 04:37:50;;;;;;;44.92;29.60;;;10.00;99.90;;;;;;4993794;28;20532;-85
2022/03/17 04:40:16;;;;;;;40.38;29.10;;;10.10;99.90;;;;;;4992789;28;20149;-85
2022/03/17 04:42:42;;;;;;;39.35;29.90;;;9.70;99.90;;;;;;4993268;28;20141;-86
2022/03/17 04:48:09;;;;;;;46.45;33.47;;;9.30;99.90;;;;;;4927986;28;20060;-85
2022/03/17 04:50:38;;;;;;;44.85;32.72;;;9.40;99.90;;;;;;4978248;28;20042;-85
2022/03/17 04:53:29;;;;;;;49.85;34.33;;;9.40;99.90;;;;;;4976373;28;20544;-86
2022/03/17 04:55:57;;;;;;;48.47;34.20;;;10.00;99.90;;;;;;4992974;28;20046;-85
2022/03/17 04:58:27;;;;;;;52.83;36.90;;;9.30;99.90;;;;;;4976030;28;20053;-85
2022/03/17 05:01:06;;;;;;;55.97;36.92;;;9.30;99.90;;;;;;4991753;28;20401;-85
2022/03/17 05:03:33;;;;;;;52.70;36.80;;;9.40;99.90;;;;;;4992817;28;20049;-86
2022/03/17 05:06:06;;;;;;;53.72;37.33;;;9.80;99.90;;;;;;4977001;28;20409;-85
2022/03/17 05:08:44;;;;;;;57.83;38.80;;;9.10;99.90;;;;;;4992501;28;20041;-86
2022/03/17 05:11:10;;;;;;;52.92;38.53;;;9.40;99.90;;;;;;4992187;28;20038;-85
2022/03/17 05:13:43;;;;;;;59.90;40.80;;;9.80;99.90;;;;;;4991895;28;20944;-85
2022/03/17 05:16:18;;;;;;;66.25;42.85;;;9.70;99.90;;;;;;4992398;28;20066;-85
2022/03/17 05:18:44;;;;;;;67.20;42.25;;;9.10;99.90;;;;;;4992184;28;20046;-85
2022/03/17 05:21:09;;;;;;;71.43;44.20;;;9.70;99.90;;;;;;4991515;28;20042;-85
2022/03/17 05:23:35;;;;;;;60.75;38.10;;;9.80;99.90;;;;;;4977071;28;20421;-85
2022/03/17 05:26:13;;;;;;;46.00;28.23;;;9.40;99.90;;;;;;4991766;28;20041;-85
2022/03/17 05:28:46;;;;;;;33.20;21.48;;;9.80;99.90;;;;;;4992142;28;20049;-85
2022/03/17 05:31:21;;;;;;;20.98;13.15;;;9.60;99.90;;;;;;4993026;28;20056;-86
2022/03/17 05:33:46;;;;;;;19.05;13.38;;;8.90;99.90;;;;;;4993630;28;20053;-88
2022/03/17 05:36:20;;;;;;;15.80;11.25;;;9.00;99.90;;;;;;4997920;28;20116;-87
2022/03/17 05:38:58;;;;;;;15.20;10.25;;;8.70;99.90;;;;;;4998572;28;20057;-87
2022/03/17 05:41:39;;;;;;;16.90;10.20;;;9.20;99.90;;;;;;5000289;28;20049;-87
2022/03/17 05:44:14;;;;;;;13.75;9.38;;;8.20;99.90;;;;;;5017149;28;20125;-87
2022/03/17 05:46:46;;;;;;;12.80;8.38;;;8.60;99.90;;;;;;5003074;28;20067;-87
2022/03/17 05:49:19;;;;;;;12.10;8.60;;;8.60;99.90;;;;;;5000360;28;20467;-85
2022/03/17 05:51:52;;;;;;;13.57;8.80;;;8.20;99.90;;;;;;4997455;28;20042;-87
2022/03/17 05:54:30;;;;;;;13.30;9.27;;;8.10;99.90;;;;;;4980691;28;20141;-87
2022/03/17 05:57:02;;;;;;;15.30;9.30;;;8.10;99.90;;;;;;4980096;28;20041;-87
2022/03/17 05:59:28;;;;;;;14.77;9.80;;;8.10;99.90;;;;;;4979923;28;20433;-86
2022/03/17 06:01:54;;;;;;;20.92;11.77;;;7.20;99.90;;;;;;4980529;28;20049;-85
2022/03/17 06:04:26;;;;;;;22.65;12.40;;;8.00;99.90;;;;;;4978817;28;20057;-87
2022/03/17 06:07:03;;;;;;;25.70;13.55;;;8.10;99.90;;;;;;4992498;28;20045;-87
2022/03/17 06:09:43;;;;;;;23.80;13.45;;;8.90;99.90;;;;;;4976466;28;20056;-87
2022/03/17 06:12:15;;;;;;;25.80;12.52;;;7.90;99.90;;;;;;4990255;28;20144;-87
2022/03/17 06:14:49;;;;;;;22.90;12.82;;;7.80;99.90;;;;;;4976624;28;20065;-88
2022/03/17 06:17:41;;;;;;;23.02;12.70;;;7.80;99.90;;;;;;4974524;28;20590;-85
2022/03/17 06:20:10;;;;;;;27.10;12.07;;;7.90;99.90;;;;;;4976661;28;20411;-88
2022/03/17 06:22:37;;;;;;;23.55;12.23;;;7.80;99.90;;;;;;4977181;28;20041;-87
2022/03/17 06:25:08;;;;;;;29.40;10.43;;;7.80;99.90;;;;;;4976483;28;20038;-88
2022/03/17 06:27:34;;;;;;;19.58;7.88;;;7.70;99.90;;;;;;4976007;28;20122;-87
2022/03/17 06:30:03;;;;;;;17.02;6.85;;;8.10;99.90;;;;;;4982765;28;20037;-87
2022/03/17 06:32:29;;;;;;;15.27;6.43;;;7.70;99.90;;;;;;4991254;28;20045;-87
2022/03/17 06:35:04;;;;;;;27.13;7.05;;;7.70;99.90;;;;;;4992331;28;20041;-87
2022/03/17 06:37:34;;;;;;;22.58;6.97;;;7.70;99.90;;;;;;4991950;28;20049;-87
2022/03/17 06:40:00;;;;;;;22.90;6.10;;;7.50;99.90;;;;;;4991268;28;20057;-86
2022/03/17 06:42:32;;;;;;;21.45;6.10;;;8.50;99.90;;;;;;4990443;28;20042;-86
2022/03/17 06:45:04;;;;;;;18.07;6.37;;;7.70;99.90;;;;;;4991745;28;20184;-86
2022/03/17 06:47:30;;;;;;;18.85;5.53;;;7.60;99.90;;;;;;4991453;28;20056;-86
2022/03/17 06:49:55;;;;;;;16.48;5.55;;;8.40;99.90;;;;;;4991884;28;20049;-86
2022/03/17 06:52:27;;;;;;;21.83;5.20;;;7.70;99.90;;;;;;5006692;28;20156;-86
2022/03/17 06:55:03;;;;;;;22.15;4.95;;;8.60;99.90;;;;;;5008000;28;20057;-85
2022/03/17 06:57:31;;;;;;;15.40;5.05;;;7.60;99.90;;;;;;5007046;28;20081;-86
2022/03/17 06:59:57;;;;;;;19.52;5.25;;;8.50;99.90;;;;;;4990624;28;20161;-86
2022/03/17 07:02:23;;;;;;;11.60;3.97;;;8.20;99.90;;;;;;5007411;28;20132;-86
2022/03/17 07:04:49;;;;;;;17.95;3.42;;;8.00;99.90;;;;;;4991331;28;20087;-85
2022/03/17 07:07:25;;;;;;;11.85;3.05;;;8.20;99.90;;;;;;4989847;28;20053;-86
2022/03/17 07:09:57;;;;;;;13.52;3.03;;;7.60;99.90;;;;;;4991312;28;20124;-86
2022/03/17 07:12:33;;;;;;;9.13;2.53;;;8.50;99.90;;;;;;5006202;28;20050;-86
2022/03/17 07:15:12;;;;;;;12.80;2.10;;;7.60;99.90;;;;;;4990461;28;20120;-85
2022/03/17 07:17:48;;;;;;;12.23;2.55;;;8.40;99.90;;;;;;4990705;28;20085;-85
2022/03/17 07:20:15;;;;;;;13.57;2.22;;;7.50;99.90;;;;;;5006172;28;20068;-85
2022/03/17 07:22:43;;;;;;;13.63;2.83;;;8.10;99.90;;;;;;4987526;28;20038;-85
2022/03/17 07:25:18;;;;;;;14.95;2.10;;;7.60;99.90;;;;;;5006192;28;20065;-85
2022/03/17 07:27:45;;;;;;;11.13;1.95;;;7.50;99.90;;;;;;5005481;28;20041;-86
2022/03/17 07:30:18;;;;;;;15.90;2.50;;;8.50;99.90;;;;;;4992141;28;20033;-85
2022/03/17 07:32:59;;;;;;;12.57;1.85;;;7.60;99.90;;;;;;5007364;28;20103;-84
2022/03/17 07:35:26;;;;;;;14.80;1.75;;;7.60;99.90;;;;;;5006101;28;20131;-85
2022/03/17 07:38:05;;;;;;;16.73;3.60;;;7.90;99.90;;;;;;5002773;28;20085;-85
2022/03/17 07:40:32;;;;;;;8.93;2.05;;;8.20;99.90;;;;;;4992414;28;20063;-85
2022/03/17 07:43:04;;;;;;;14.10;1.98;;;7.50;99.90;;;;;;4989648;28;20044;-86
2022/03/17 07:45:30;;;;;;;13.60;1.83;;;8.30;99.90;;;;;;5006119;28;20045;-86
2022/03/17 07:48:11;;;;;;;15.27;2.83;;;8.50;99.90;;;;;;4990952;28;20045;-87
2022/03/17 07:50:37;;;;;;;15.55;2.65;;;7.40;99.90;;;;;;5004562;28;20045;-86
2022/03/17 07:53:18;;;;;;;13.25;2.30;;;7.50;99.90;;;;;;4995373;28;20103;-86
2022/03/17 07:55:44;;;;;;;18.48;2.50;;;7.70;99.90;;;;;;4987618;28;20041;-87
2022/03/17 07:58:24;;;;;;;12.75;2.17;;;7.90;99.90;;;;;;4986748;28;20382;-87
2022/03/17 08:01:09;;;;;;;14.77;2.05;;;7.50;99.90;;;;;;5006146;28;20049;-86
2022/03/17 08:03:35;;;;;;;19.42;2.50;;;7.50;99.90;;;;;;4986826;28;20045;-88
2022/03/17 08:06:14;;;;;;;15.63;2.78;;;7.20;99.90;;;;;;5009028;28;20493;-87
2022/03/17 08:08:41;;;;;;;29.50;2.58;;;8.60;99.90;;;;;;5003103;28;20325;-85
2022/03/17 08:11:16;;;;;;;24.80;3.70;;;7.60;99.90;;;;;;4996199;28;20068;-86
2022/03/17 08:13:43;;;;;;;16.63;2.05;;;7.60;99.90;;;;;;5003579;28;20042;-86
2022/03/17 08:16:34;;;;;;;15.68;2.25;;;7.60;99.90;;;;;;5009463;28;20425;-86
2022/03/17 08:19:15;;;;;;;17.17;3.15;;;7.60;99.90;;;;;;4999477;28;20497;-86
2022/03/17 08:21:41;;;;;;;16.17;2.95;;;7.60;99.90;;;;;;5004333;28;20048;-86
2022/03/17 08:24:14;;;;;;;18.33;2.50;;;8.60;99.90;;;;;;5004472;28;20436;-86
2022/03/17 08:26:40;;;;;;;19.60;2.65;;;8.00;99.90;;;;;;5008493;28;20044;-87
2022/03/17 08:29:06;;;;;;;17.85;2.33;;;7.60;99.90;;;;;;5007439;28;20064;-88
2022/03/17 08:31:48;;;;;;;23.08;2.80;;;8.60;99.90;;;;;;4987578;28;20049;-87
2022/03/17 08:34:13;;;;;;;26.58;3.47;;;7.80;99.90;;;;;;5004662;28;20051;-87
2022/03/17 08:36:39;;;;;;;21.33;3.95;;;7.80;99.90;;;;;;4996881;28;20128;-87
2022/03/17 08:39:11;;;;;;;22.75;3.83;;;7.80;99.90;;;;;;5000490;28;20114;-87
2022/03/17 08:41:37;;;;;;;30.75;3.92;;;7.60;99.90;;;;;;4985128;28;20056;-88
2022/03/17 08:44:19;;;;;;;22.52;3.58;;;7.70;99.90;;;;;;5013343;28;20404;-88
2022/03/17 08:49:53;;;;;;;22.42;2.88;;;7.80;99.90;;;;;;5029910;28;20238;-87
2022/03/17 08:52:27;;;;;;;19.10;3.28;;;7.90;99.90;;;;;;5009683;28;20144;-87
2022/03/17 08:54:53;;;;;;;18.42;2.63;;;8.70;99.90;;;;;;4999043;28;20103;-86
2022/03/17 08:57:19;;;;;;;15.55;2.75;;;7.70;99.90;;;;;;5023356;28;20938;-85
2022/03/17 09:00:06;;;;;;;21.92;2.50;;;7.70;99.90;;;;;;5004833;28;20049;-85
2022/03/17 09:02:32;;;;;;;17.05;2.00;;;8.30;99.90;;;;;;5024946;28;20056;-86
2022/03/17 09:05:01;;;;;;;18.25;2.50;;;7.60;99.90;;;;;;5014231;28;20044;-87
2022/03/17 09:07:27;;;;;;;21.63;2.67;;;8.40;99.90;;;;;;4999132;28;20045;-86
2022/03/17 09:09:52;;;;;;;23.45;2.97;;;8.30;99.90;;;;;;5009791;28;20114;-87
2022/03/17 09:12:33;;;;;;;17.30;2.08;;;8.40;99.90;;;;;;4994028;28;20041;-85
2022/03/17 09:14:59;;;;;;;18.25;2.17;;;7.70;99.90;;;;;;5004967;28;20057;-86
2022/03/17 09:17:25;;;;;;;14.20;2.10;;;8.50;99.90;;;;;;4992633;28;20099;-86
2022/03/17 09:19:51;;;;;;;18.10;2.60;;;8.00;99.90;;;;;;4997285;28;20049;-86
2022/03/17 09:22:25;;;;;;;13.18;1.73;;;7.10;99.90;;;;;;4995886;28;20045;-86
2022/03/17 09:24:51;;;;;;;19.02;2.97;;;9.10;99.90;;;;;;4996175;28;20053;-86
2022/03/17 09:27:26;;;;;;;14.48;2.70;;;8.80;99.90;;;;;;5006955;28;20547;-87
2022/03/17 09:30:07;;;;;;;14.02;2.35;;;8.70;99.90;;;;;;4996755;28;20185;-86
2022/03/17 09:32:33;;;;;;;18.10;2.42;;;7.90;99.90;;;;;;4993763;28;20041;-87
2022/03/17 09:34:59;;;;;;;17.92;3.35;;;8.90;99.90;;;;;;4995705;28;20045;-85
2022/03/17 09:37:25;;;;;;;19.20;2.33;;;7.90;99.90;;;;;;5003344;28;20118;-85
2022/03/17 09:39:51;;;;;;;23.25;2.60;;;7.90;99.90;;;;;;5023927;28;20139;-85
2022/03/17 09:42:20;;;;;;;17.65;2.28;;;8.00;99.90;;;;;;5012030;28;20178;-85
2022/03/17 09:44:58;;;;;;;18.85;2.35;;;8.60;99.90;;;;;;5004227;28;20404;-85
2022/03/17 09:47:27;;;;;;;13.75;1.85;;;8.40;99.90;;;;;;4996959;28;20037;-85
2022/03/17 09:49:56;;;;;;;12.65;2.22;;;8.70;99.90;;;;;;4999236;28;20053;-86
2022/03/17 09:52:23;;;;;;;19.83;3.40;;;8.50;99.90;;;;;;5007824;28;20068;-84
2022/03/17 09:54:52;;;;;;;19.30;2.42;;;9.20;99.90;;;;;;5019387;28;20068;-84
2022/03/17 09:57:23;;;;;;;18.20;2.67;;;9.00;99.90;;;;;;4993313;28;20489;-85
2022/03/17 09:59:53;;;;;;;20.52;3.05;;;9.40;99.90;;;;;;5017499;28;20049;-83
2022/03/17 10:02:32;;;;;;;17.52;2.78;;;9.30;99.90;;;;;;4995952;28;20056;-84
2022/03/17 10:05:13;;;;;;;22.05;2.78;;;8.50;99.90;;;;;;5029472;28;20496;-82
2022/03/17 10:07:39;;;;;;;17.00;2.47;;;8.50;99.90;;;;;;5017137;28;20584;-83
2022/03/17 10:10:34;;;;;;;17.08;2.72;;;8.90;99.90;;;;;;5018915;28;20144;-84
2022/03/17 10:13:22;;;;;;;16.23;3.10;;;8.30;99.90;;;;;;5016166;28;20068;-85
2022/03/17 10:16:06;;;;;;;15.85;2.75;;;8.70;99.90;;;;;;4993801;28;20049;-83
2022/03/17 10:18:43;;;;;;;16.30;2.47;;;9.80;99.90;;;;;;5017382;28;20099;-84
2022/03/17 10:21:34;;;;;;;15.02;2.30;;;9.70;99.90;;;;;;5005562;28;20044;-85
2022/03/17 10:24:09;;;;;;;17.38;2.67;;;9.20;99.90;;;;;;5014370;28;20033;-90
2022/03/17 10:26:40;;;;;;;13.02;2.25;;;9.20;99.90;;;;;;4991190;28;20049;-92
2022/03/17 10:29:26;;;;;;;19.13;2.20;;;9.20;99.90;;;;;;5007243;28;20044;-86
2022/03/17 10:32:04;;;;;;;18.40;3.03;;;9.30;99.90;;;;;;5005221;28;20997;-86
2022/03/17 10:34:45;;;;;;;19.10;2.72;;;9.30;99.90;;;;;;5002633;28;20049;-87
2022/03/17 10:37:35;;;;;;;16.83;2.40;;;9.90;99.90;;;;;;4998225;28;20041;-88
2022/03/17 10:40:11;;;;;;;16.73;2.50;;;9.50;99.90;;;;;;5004648;28;20111;-87
2022/03/17 10:42:38;;;;;;;13.00;1.88;;;9.60;99.90;;;;;;4994667;28;20077;-86
2022/03/17 10:45:19;;;;;;;20.80;2.78;;;9.70;99.90;;;;;;5012023;28;20049;-85
2022/03/17 10:48:06;;;;;;;19.52;2.55;;;9.80;99.90;;;;;;4989842;28;20050;-86
2022/03/17 10:50:40;;;;;;;17.67;2.28;;;10.40;99.90;;;;;;5015994;28;20499;-86
2022/03/17 10:53:10;;;;;;;18.92;2.55;;;9.90;99.90;;;;;;5002751;28;20091;-86
2022/03/17 10:55:49;;;;;;;16.67;2.72;;;10.10;99.90;;;;;;5000899;28;20528;-86
2022/03/17 10:58:26;;;;;;;14.80;2.30;;;10.70;99.90;;;;;;4991529;28;20041;-87
2022/03/17 11:00:58;;;;;;;18.70;2.50;;;10.40;99.90;;;;;;5022780;28;20048;-87
2022/03/17 11:03:24;;;;;;;16.45;2.75;;;10.20;99.90;;;;;;5006699;28;20067;-85
2022/03/17 11:05:59;;;;;;;23.25;3.38;;;11.00;99.90;;;;;;5010084;28;20420;-85
2022/03/17 11:08:37;;;;;;;18.52;2.85;;;10.10;99.90;;;;;;4994242;28;20052;-85
2022/03/17 11:11:11;;;;;;;18.65;2.42;;;10.50;99.90;;;;;;5008751;28;20088;-85
2022/03/17 11:13:36;;;;;;;15.00;2.58;;;10.20;99.90;;;;;;5011755;28;20124;-85
2022/03/17 11:16:07;;;;;;;15.77;2.60;;;10.30;99.90;;;;;;4994974;28;20132;-85
2022/03/17 11:18:37;;;;;;;12.35;2.13;;;10.10;99.90;;;;;;4991579;28;20085;-85
2022/03/17 11:21:16;;;;;;;12.93;2.33;;;10.10;99.90;;;;;;5005822;28;20049;-85
2022/03/17 11:24:05;;;;;;;15.18;2.80;;;10.10;99.90;;;;;;5019391;28;20049;-86
2022/03/17 11:26:39;;;;;;;16.30;3.10;;;10.00;99.90;;;;;;5006786;28;20056;-86
2022/03/17 11:29:10;;;;;;;17.15;2.40;;;9.80;99.90;;;;;;5029993;28;20044;-85
2022/03/17 11:32:16;;;;;;;22.95;3.13;;;10.70;99.90;;;;;;5030623;28;20037;-85
2022/03/17 11:35:03;;;;;;;16.90;2.72;;;10.40;99.90;;;;;;5029237;28;20045;-85
2022/03/17 11:37:33;;;;;;;15.57;2.22;;;9.60;99.90;;;;;;5029744;28;20057;-85
2022/03/17 11:40:28;;;;;;;10.93;2.10;;;10.10;99.90;;;;;;5013828;28;20052;-85
2022/03/17 11:43:07;;;;;;;16.92;2.63;;;10.40;99.90;;;;;;5028797;28;20045;-85
2022/03/17 11:45:36;;;;;;;17.73;2.80;;;10.60;99.90;;;;;;5030204;28;20052;-86
2022/03/17 11:48:17;;;;;;;15.43;2.72;;;10.70;99.90;;;;;;5012258;28;20049;-85
2022/03/17 11:50:56;;;;;;;12.48;2.22;;;10.90;99.90;;;;;;5030568;28;20462;-85
2022/03/17 11:53:37;;;;;;;13.25;2.53;;;11.00;99.90;;;;;;5012857;28;20476;-85
2022/03/17 11:56:09;;;;;;;12.02;2.20;;;11.10;99.90;;;;;;5013001;28;20140;-85
2022/03/17 11:58:43;;;;;;;12.77;2.22;;;11.10;99.90;;;;;;5029307;28;20059;-86
2022/03/17 12:01:23;;;;;;;18.08;2.25;;;11.00;99.90;;;;;;5012950;28;20539;-85
2022/03/17 12:03:55;;;;;;;15.30;2.40;;;10.90;99.90;;;;;;5028943;28;20092;-85
2022/03/17 12:06:35;;;;;;;17.45;2.78;;;10.50;99.90;;;;;;5029626;28;20523;-85
2022/03/17 12:09:04;;;;;;;13.18;2.15;;;10.30;99.90;;;;;;5004708;28;20050;-85
2022/03/17 12:11:44;;;;;;;14.85;2.35;;;10.30;99.90;;;;;;4993642;28;20130;-85
2022/03/17 12:14:18;;;;;;;15.10;2.58;;;10.40;99.90;;;;;;4976734;28;20053;-85
2022/03/17 12:16:55;;;;;;;14.43;2.45;;;10.50;99.90;;;;;;4993308;28;20057;-85
2022/03/17 12:19:40;;;;;;;15.55;2.88;;;10.50;99.90;;;;;;4993688;28;20056;-85
2022/03/17 12:22:09;;;;;;;14.20;2.75;;;10.60;99.90;;;;;;4977624;28;20042;-85
2022/03/17 12:24:41;;;;;;;12.73;2.00;;;10.50;99.90;;;;;;4993058;28;20177;-85
2022/03/17 12:27:18;;;;;;;15.82;2.70;;;10.40;99.90;;;;;;4992970;28;20084;-85
2022/03/17 12:29:46;;;;;;;12.70;2.20;;;10.40;99.90;;;;;;4993467;28;20042;-85
2022/03/17 12:32:16;;;;;;;18.33;2.45;;;10.40;99.90;;;;;;4993099;28;20046;-85
2022/03/17 12:34:46;;;;;;;22.73;2.72;;;10.80;99.90;;;;;;4978093;28;20045;-85
2022/03/17 12:37:12;;;;;;;14.55;2.97;;;10.60;99.90;;;;;;4992345;28;20061;-85
2022/03/17 12:39:40;;;;;;;17.70;2.58;;;10.60;99.90;;;;;;4993905;28;20085;-86
2022/03/17 12:42:24;;;;;;;11.05;2.13;;;10.80;99.90;;;;;;4976815;28;20696;-85
2022/03/17 12:45:11;;;;;;;11.82;2.03;;;10.50;99.90;;;;;;4993007;28;20401;-86
2022/03/17 12:47:56;;;;;;;13.63;1.52;;;10.30;99.90;;;;;;4993911;28;20049;-86
2022/03/17 12:50:32;;;;;;;10.07;1.60;;;11.20;99.90;;;;;;4976814;28;20092;-85
2022/03/17 12:52:57;;;;;;;14.38;2.20;;;11.10;99.90;;;;;;4992123;28;20494;-85
2022/03/17 12:55:36;;;;;;;14.57;2.70;;;10.90;99.90;;;;;;4992940;28;20177;-85
2022/03/17 12:58:04;;;;;;;12.63;2.72;;;10.50;99.90;;;;;;4975692;28;20176;-85
2022/03/17 13:00:48;;;;;;;12.52;2.13;;;11.30;99.90;;;;;;4979689;28;20129;-85
2022/03/17 13:03:25;;;;;;;19.55;3.95;;;10.70;99.90;;;;;;4976727;28;20062;-86
2022/03/17 13:08:52;;;;;;;14.15;2.08;;;10.80;99.90;;;;;;4993425;28;20081;-85
2022/03/17 13:14:20;;;;;;;13.98;3.00;;;10.80;99.90;;;;;;4992747;28;20177;-86
2022/03/17 13:16:57;;;;;;;15.32;2.00;;;10.70;99.90;;;;;;4993539;28;20073;-86
2022/03/17 13:19:25;;;;;;;16.85;2.53;;;11.10;99.90;;;;;;4976234;28;20057;-86
2022/03/17 13:22:13;;;;;;;20.88;3.00;;;10.70;99.90;;;;;;4992243;28;20446;-85
2022/03/17 13:24:39;;;;;;;17.50;2.78;;;10.70;99.90;;;;;;4993702;28;20490;-85